Time;durP1;ratioP1;P1;durP2;ratioP2;P2;SDS_P1;SDS_P2;PMS_P1;PMS_P2;Temp;Humidity;BMP_temperature;BMP_pressure;BME280_temperature;BME280_humidity;BME280_pressure;Samples;Min_cycle;Max_cycle;Signal;HPM_P1;HPM_P2
2023/07/27 00:02:12;;;;;;;6.80;3.60;;;;;;;14.39;95.02;100316.72;4808323;29;20061;-75
2023/07/27 00:05:16;;;;;;;7.68;3.17;;;;;;;14.31;95.95;100321.66;4797339;29;20133;-75
2023/07/27 00:08:19;;;;;;;6.55;3.70;;;;;;;14.25;96.94;100317.66;4807865;29;20046;-75
2023/07/27 00:11:22;;;;;;;9.75;3.33;;;;;;;14.32;96.30;100321.53;4808267;29;20054;-75
2023/07/27 00:14:26;;;;;;;10.57;3.17;;;;;;;14.26;96.89;100326.41;4807948;29;20590;-75
2023/07/27 00:17:29;;;;;;;9.88;4.00;;;;;;;14.24;97.46;100325.69;4807884;29;20138;-75
2023/07/27 00:20:32;;;;;;;4.85;3.20;;;;;;;14.22;97.21;100319.69;4808062;29;20070;-75
2023/07/27 00:23:36;;;;;;;8.80;3.47;;;;;;;14.10;97.93;100316.13;4807680;29;20556;-75
2023/07/27 00:26:41;;;;;;;5.82;3.67;;;;;;;14.14;98.10;100307.09;4817329;29;20065;-75
2023/07/27 00:29:45;;;;;;;9.00;3.63;;;;;;;14.15;97.95;100306.13;4807603;29;20412;-75
2023/07/27 00:32:48;;;;;;;7.55;5.05;;;;;;;14.15;97.83;100299.06;4807734;29;20117;-75
2023/07/27 00:35:58;;;;;;;7.72;5.07;;;;;;;14.29;97.48;100294.63;4807572;29;20478;-75
2023/07/27 00:39:03;;;;;;;11.20;5.80;;;;;;;14.26;97.34;100297.47;4807585;29;20057;-75
2023/07/27 00:42:07;;;;;;;17.27;8.38;;;;;;;14.17;97.47;100297.19;4807438;29;20417;-75
2023/07/27 00:45:10;;;;;;;12.52;7.18;;;;;;;14.23;96.92;100290.66;4807259;29;20128;-75
2023/07/27 00:48:14;;;;;;;17.40;9.05;;;;;;;14.17;97.21;100284.03;4806715;29;20131;-75
2023/07/27 00:51:17;;;;;;;13.93;10.30;;;;;;;14.09;98.35;100281.09;4807532;29;20515;-75
2023/07/27 00:54:21;;;;;;;14.10;10.23;;;;;;;14.22;97.79;100282.88;4806450;29;20108;-75
2023/07/27 00:57:25;;;;;;;14.55;9.50;;;;;;;14.09;98.26;100277.63;4805926;29;20149;-75
2023/07/27 01:00:30;;;;;;;13.68;8.45;;;;;;;14.07;98.28;100275.13;4806213;29;20137;-75
2023/07/27 01:03:33;;;;;;;14.30;9.85;;;;;;;14.10;98.25;100261.78;4807029;29;20058;-75
2023/07/27 01:06:37;;;;;;;16.83;10.38;;;;;;;14.09;98.47;100269.75;4806910;29;20474;-75
2023/07/27 01:09:40;;;;;;;11.52;9.38;;;;;;;14.07;98.80;100259.34;4795903;29;20512;-75
2023/07/27 01:12:43;;;;;;;12.15;9.05;;;;;;;14.09;98.33;100257.44;4806042;29;20412;-75
2023/07/27 01:16:02;;;;;;;9.80;7.10;;;;;;;14.09;97.99;100252.19;4807130;29;20169;-76
2023/07/27 01:19:24;;;;;;;11.27;6.85;;;;;;;14.04;97.88;100243.81;4795558;29;20073;-75
2023/07/27 01:22:30;;;;;;;9.00;6.50;;;;;;;14.00;98.83;100237.06;4806717;29;20066;-75
2023/07/27 01:25:53;;;;;;;11.20;6.55;;;;;;;13.92;99.35;100234.16;4804983;29;20558;-75
2023/07/27 01:29:31;;;;;;;10.90;5.18;;;;;;;14.02;98.84;100232.53;4795570;29;20099;-75
2023/07/27 01:32:40;;;;;;;6.65;4.97;;;;;;;14.00;98.63;100229.16;4806630;29;20049;-76
2023/07/27 01:35:55;;;;;;;7.60;5.18;;;;;;;13.94;98.95;100226.97;4806575;29;20108;-76
2023/07/27 01:39:03;;;;;;;5.18;4.43;;;;;;;13.96;98.77;100222.47;4806408;29;20054;-75
2023/07/27 01:42:11;;;;;;;7.60;4.57;;;;;;;13.97;98.41;100216.25;4816194;29;20582;-75
2023/07/27 01:45:16;;;;;;;7.13;3.58;;;;;;;13.94;98.85;100213.84;4806328;29;20053;-76
2023/07/27 01:48:21;;;;;;;7.35;3.97;;;;;;;13.90;99.37;100213.22;4806226;29;20073;-75
2023/07/27 01:51:27;;;;;;;17.92;5.10;;;;;;;13.80;99.85;100204.31;4805369;29;20046;-75
2023/07/27 01:54:31;;;;;;;5.78;4.40;;;;;;;13.92;99.94;100208.69;4806331;29;20062;-75
2023/07/27 01:57:35;;;;;;;9.55;3.92;;;;;;;13.86;100.00;100197.78;4805848;29;20054;-75
2023/07/27 02:00:40;;;;;;;5.90;3.85;;;;;;;13.84;100.00;100195.25;4815912;29;20050;-75
2023/07/27 02:03:43;;;;;;;6.43;3.97;;;;;;;13.84;100.00;100194.41;4806001;29;20054;-75
2023/07/27 02:06:50;;;;;;;7.20;4.13;;;;;;;13.78;100.00;100185.19;4794966;29;20153;-75
2023/07/27 02:09:53;;;;;;;7.25;4.03;;;;;;;13.86;100.00;100182.03;4806131;29;20115;-75
2023/07/27 02:13:14;;;;;;;5.63;3.55;;;;;;;13.90;100.00;100178.22;4794729;29;20081;-75
2023/07/27 02:16:34;;;;;;;7.22;3.92;;;;;;;13.86;99.42;100180.22;4794730;29;20049;-76
2023/07/27 02:19:42;;;;;;;6.63;3.30;;;;;;;13.79;100.00;100183.41;4804917;29;20475;-75
2023/07/27 02:22:47;;;;;;;3.88;3.47;;;;;;;13.83;100.00;100176.97;4805899;29;20468;-75
2023/07/27 02:25:51;;;;;;;10.65;3.60;;;;;;;13.83;99.99;100172.56;4805930;29;20108;-76
2023/07/27 02:28:56;;;;;;;5.45;3.20;;;;;;;13.87;99.59;100170.56;4805590;29;20054;-75
2023/07/27 02:32:00;;;;;;;4.85;3.58;;;;;;;13.84;99.61;100163.72;4805901;29;20163;-75
2023/07/27 02:35:04;;;;;;;5.32;3.03;;;;;;;13.94;99.10;100158.63;4794563;29;20467;-75
2023/07/27 02:38:07;;;;;;;8.13;3.05;;;;;;;13.92;99.17;100163.19;4804627;29;20057;-75
2023/07/27 02:41:11;;;;;;;8.95;3.65;;;;;;;13.88;100.00;100159.06;4804702;29;20115;-76
2023/07/27 02:44:15;;;;;;;14.75;5.68;;;;;;;13.84;99.56;100162.88;4804155;29;20532;-76
2023/07/27 02:47:19;;;;;;;5.68;3.88;;;;;;;13.84;99.44;100152.38;4803308;29;20116;-75
2023/07/27 02:50:23;;;;;;;9.65;3.83;;;;;;;13.84;99.60;100152.38;4792053;29;20108;-76
2023/07/27 02:53:35;;;;;;;4.15;3.60;;;;;;;13.98;98.80;100157.50;4794165;29;20057;-75
2023/07/27 02:56:45;;;;;;;7.10;3.97;;;;;;;13.95;98.02;100155.09;4804471;29;20081;-75
2023/07/27 02:59:48;;;;;;;6.53;3.58;;;;;;;13.89;98.30;100150.25;4804316;29;20179;-75
2023/07/27 03:02:51;;;;;;;8.15;3.50;;;;;;;13.87;98.16;100152.97;4804308;29;20520;-75
2023/07/27 03:05:59;;;;;;;3.72;3.33;;;;;;;13.81;98.98;100150.78;4814947;29;20049;-76
2023/07/27 03:09:03;;;;;;;12.20;3.55;;;;;;;13.80;99.57;100146.50;4804458;29;20536;-76
2023/07/27 03:12:08;;;;;;;5.25;3.58;;;;;;;13.75;99.37;100147.78;4793609;29;20045;-75
2023/07/27 03:15:11;;;;;;;6.65;3.47;;;;;;;13.68;100.00;100144.75;4804262;29;20049;-76
2023/07/27 03:18:15;;;;;;;6.65;3.20;;;;;;;13.73;100.00;100150.53;4805055;29;20046;-76
2023/07/27 03:21:18;;;;;;;6.05;3.13;;;;;;;13.77;99.81;100146.72;4793986;29;20593;-75
2023/07/27 03:24:21;;;;;;;;;;;;;;;13.88;99.24;100140.69;4794492;29;20527;-75
2023/07/27 03:27:24;;;;;;;6.03;2.78;;;;;;;13.92;98.37;100134.28;4804323;29;20027;-76
2023/07/27 03:30:27;;;;;;;4.03;2.47;;;;;;;13.98;98.09;100133.84;4804992;29;20180;-75
2023/07/27 03:33:30;;;;;;;;;;;;;;;13.92;98.91;100152.69;4804640;29;20117;-75
2023/07/27 03:36:33;;;;;;;5.38;2.80;;;;;;;13.90;99.33;100146.69;4805294;29;19980;-76
2023/07/27 03:39:36;;;;;;;6.88;2.83;;;;;;;13.93;99.08;100146.47;4805300;29;20108;-76
2023/07/27 03:42:40;;;;;;;5.53;2.75;;;;;;;14.04;98.28;100143.91;4804443;29;20053;-76
2023/07/27 03:45:43;;;;;;;8.50;3.50;;;;;;;14.13;98.47;100145.84;4805361;29;20512;-76
2023/07/27 03:48:50;;;;;;;6.30;2.83;;;;;;;14.20;97.70;100138.38;4804380;29;20136;-76
2023/07/27 03:51:54;;;;;;;10.68;3.00;;;;;;;14.19;97.34;100131.41;4804307;29;20174;-76
2023/07/27 03:54:57;;;;;;;4.72;2.80;;;;;;;14.14;96.84;100129.13;4804477;29;20085;-76
2023/07/27 03:58:00;;;;;;;6.47;2.58;;;;;;;14.15;96.83;100130.78;4803723;29;20142;-76
2023/07/27 04:01:04;;;;;;;5.85;2.35;;;;;;;14.01;98.13;100122.22;4793811;29;20096;-75
2023/07/27 04:04:07;;;;;;;5.05;2.72;;;;;;;14.00;98.16;100126.66;4804233;29;20042;-75
2023/07/27 04:07:10;;;;;;;6.38;2.67;;;;;;;14.09;98.59;100120.72;4804924;29;20125;-75
2023/07/27 04:10:14;;;;;;;9.40;2.55;;;;;;;14.25;97.74;100114.34;4804792;29;20408;-75
2023/07/27 04:13:17;;;;;;;4.53;2.45;;;;;;;14.13;98.32;100116.91;4793210;29;20054;-75
2023/07/27 04:16:20;;;;;;;8.30;2.75;;;;;;;14.11;98.17;100107.47;4804255;29;20057;-75
2023/07/27 04:19:24;;;;;;;9.88;2.95;;;;;;;14.09;98.36;100104.94;4803842;29;20069;-75
2023/07/27 04:22:43;;;;;;;4.25;2.75;;;;;;;14.17;98.22;100105.25;4804925;29;20065;-76
2023/07/27 04:25:46;;;;;;;4.22;2.72;;;;;;;14.07;98.45;100108.63;4806574;29;20054;-75
2023/07/27 04:28:49;;;;;;;3.28;2.63;;;;;;;14.07;98.43;100098.13;4795731;29;20069;-75
2023/07/27 04:31:53;;;;;;;6.25;3.08;;;;;;;14.00;99.19;100103.00;4807130;29;20054;-76
2023/07/27 04:34:56;;;;;;;6.07;2.78;;;;;;;14.05;98.51;100108.75;4807079;29;20544;-75
2023/07/27 04:37:59;;;;;;;6.22;2.53;;;;;;;14.09;98.04;100094.44;4806860;29;20053;-75
2023/07/27 04:41:03;;;;;;;6.72;2.65;;;;;;;14.05;98.08;100098.25;4806405;29;20065;-74
2023/07/27 04:44:06;;;;;;;;;;;;;;;14.11;98.08;100097.81;4806203;29;20053;-74
2023/07/27 04:47:09;;;;;;;8.95;2.60;;;;;;;14.17;97.97;100094.72;4806682;29;19939;-78
2023/07/27 04:50:12;;;;;;;3.42;2.38;;;;;;;14.26;98.30;100090.53;4804899;29;20152;-72
2023/07/27 04:53:16;;;;;;;4.95;2.13;;;;;;;14.26;97.44;100085.28;4805333;29;20134;-72
2023/07/27 04:56:19;;;;;;;6.57;3.55;;;;;;;14.12;98.52;100083.69;4806183;29;20058;-72
2023/07/27 04:59:22;;;;;;;8.40;2.30;;;;;;;14.08;98.98;100087.50;4805326;29;20049;-72
2023/07/27 05:02:25;;;;;;;5.45;1.90;;;;;;;14.09;99.02;100077.81;4806320;29;20081;-72
2023/07/27 05:05:29;;;;;;;5.03;1.77;;;;;;;14.21;98.40;100070.84;4805579;29;20045;-73
2023/07/27 05:08:33;;;;;;;5.72;2.00;;;;;;;14.35;97.57;100068.00;4806501;29;20138;-74
2023/07/27 05:11:36;;;;;;;4.15;2.15;;;;;;;14.45;97.01;100061.06;4806314;29;20085;-72
2023/07/27 05:14:39;;;;;;;7.80;2.45;;;;;;;14.41;97.24;100062.28;4806104;29;20050;-72
2023/07/27 05:17:43;;;;;;;4.95;1.70;;;;;;;14.40;97.27;100050.09;4806004;29;20098;-74
2023/07/27 05:20:46;;;;;;;;;;;;;;;14.30;98.40;100038.59;4806406;29;20065;-75
2023/07/27 05:23:49;;;;;;;3.35;1.80;;;;;;;14.36;97.63;100038.13;4806186;29;19924;-73
2023/07/27 05:26:53;;;;;;;3.88;1.70;;;;;;;14.35;97.59;100041.69;4805035;29;20118;-73
2023/07/27 05:29:56;;;;;;;4.38;1.90;;;;;;;14.35;97.83;100039.88;4794744;29;20126;-74
2023/07/27 05:33:00;;;;;;;5.57;1.20;;;;;;;14.44;97.10;100041.00;4805800;29;20069;-72
2023/07/27 05:36:04;;;;;;;5.93;1.38;;;;;;;14.51;96.57;100031.72;4805905;29;20058;-74
2023/07/27 05:39:07;;;;;;;3.28;1.80;;;;;;;14.56;96.48;100024.31;4805553;29;20104;-72
2023/07/27 05:42:10;;;;;;;3.78;1.27;;;;;;;14.54;96.84;100025.38;4805572;29;20073;-74
2023/07/27 05:45:14;;;;;;;2.00;1.20;;;;;;;14.59;96.76;100026.72;4805874;29;20420;-73
2023/07/27 05:48:17;;;;;;;6.07;1.38;;;;;;;14.58;96.96;100027.69;4805532;29;20069;-75
2023/07/27 05:51:21;;;;;;;4.97;1.67;;;;;;;14.61;96.13;100021.31;4805815;29;20053;-73
2023/07/27 05:54:24;;;;;;;4.88;1.55;;;;;;;14.65;96.27;100018.34;4805244;29;20049;-76
2023/07/27 05:57:27;;;;;;;;;;;;;;;14.69;96.13;100015.47;4805673;29;20066;-74
2023/07/27 06:00:30;;;;;;;2.60;1.58;;;;;;;14.70;96.56;100015.34;4805354;29;20048;-74
2023/07/27 06:03:34;;;;;;;5.57;1.60;;;;;;;14.67;96.91;100005.06;4805233;29;20141;-73
2023/07/27 06:06:37;;;;;;;5.43;1.70;;;;;;;14.61;97.34;100005.53;4805219;29;20409;-74
2023/07/27 06:09:40;;;;;;;7.47;1.77;;;;;;;14.72;97.08;100010.81;4794033;29;20066;-74
2023/07/27 06:12:44;;;;;;;9.95;3.45;;;;;;;14.65;97.10;100007.81;4804869;29;20116;-74
2023/07/27 06:15:47;;;;;;;6.05;1.50;;;;;;;14.65;97.34;100005.19;4805105;29;20058;-73
2023/07/27 06:18:51;;;;;;;6.82;1.83;;;;;;;14.68;97.88;100006.75;4805076;29;20050;-74
2023/07/27 06:21:54;;;;;;;4.75;1.75;;;;;;;14.78;97.07;100006.88;4804734;29;20072;-72
2023/07/27 06:24:57;;;;;;;4.45;2.10;;;;;;;14.83;96.54;99989.75;4804877;29;20100;-71
2023/07/27 06:28:00;;;;;;;2.95;1.60;;;;;;;14.87;96.16;99985.09;4804728;29;20066;-73
2023/07/27 06:31:04;;;;;;;3.13;1.55;;;;;;;14.83;97.25;99991.53;4805149;29;20053;-73
2023/07/27 06:34:07;;;;;;;3.67;2.00;;;;;;;14.90;96.85;99987.50;4804785;29;20109;-73
2023/07/27 06:37:11;;;;;;;8.27;2.10;;;;;;;14.84;97.74;99983.53;4804989;29;20069;-73
2023/07/27 06:40:14;;;;;;;4.60;2.15;;;;;;;14.80;98.55;99973.34;4804962;29;20115;-73
2023/07/27 06:43:18;;;;;;;4.82;2.30;;;;;;;14.87;98.27;99979.84;4804839;29;20065;-73
2023/07/27 06:46:21;;;;;;;5.88;2.20;;;;;;;14.92;98.73;99982.91;4803960;29;20120;-75
2023/07/27 06:49:24;;;;;;;3.28;2.17;;;;;;;14.92;98.73;99974.19;4804479;29;20046;-75
2023/07/27 06:52:28;;;;;;;4.95;2.40;;;;;;;14.98;98.66;99974.53;4803188;29;20185;-74
2023/07/27 06:55:31;;;;;;;4.32;2.53;;;;;;;14.96;98.92;99965.09;4802685;29;20353;-74
2023/07/27 06:58:35;;;;;;;5.82;2.38;;;;;;;14.88;99.17;99960.44;4811860;29;20070;-76
2023/07/27 07:01:38;;;;;;;5.45;2.17;;;;;;;14.88;100.00;99958.63;4803042;29;20049;-74
2023/07/27 07:04:41;;;;;;;;;;;;;;;14.93;99.42;99953.00;4803712;29;20135;-74
2023/07/27 07:07:45;;;;;;;4.03;2.85;;;;;;;14.74;100.00;99951.00;4803288;29;20406;-75
2023/07/27 07:10:48;;;;;;;6.35;2.60;;;;;;;14.80;100.00;99944.41;4804214;29;20391;-74
2023/07/27 07:13:52;;;;;;;4.50;2.53;;;;;;;14.78;100.00;99933.19;4804244;29;20108;-74
2023/07/27 07:16:59;;;;;;;5.55;2.58;;;;;;;14.86;100.00;99931.59;4804594;29;20073;-75
2023/07/27 07:20:08;;;;;;;5.28;2.45;;;;;;;14.88;100.00;99934.13;4804346;29;20121;-75
2023/07/27 07:23:11;;;;;;;4.10;2.25;;;;;;;14.75;100.00;99929.00;4804801;29;20057;-74
2023/07/27 07:26:14;;;;;;;3.75;2.15;;;;;;;14.85;100.00;99926.47;4804343;29;20046;-74
2023/07/27 07:29:20;;;;;;;6.20;2.28;;;;;;;14.97;100.00;99920.22;4804158;29;20441;-74
2023/07/27 07:32:23;;;;;;;10.65;2.58;;;;;;;14.98;100.00;99923.69;4804143;29;20050;-74
2023/07/27 07:35:27;;;;;;;4.93;2.15;;;;;;;15.05;100.00;99912.53;4804349;29;20111;-74
2023/07/27 07:38:30;;;;;;;7.35;2.20;;;;;;;15.19;100.00;99911.44;4803496;29;20128;-78
2023/07/27 07:41:34;;;;;;;7.25;2.20;;;;;;;15.25;100.00;99910.06;4801296;29;20105;-73
2023/07/27 07:44:38;;;;;;;5.78;2.33;;;;;;;15.31;100.00;99901.69;4803674;29;20058;-74
2023/07/27 07:47:43;;;;;;;8.55;3.08;;;;;;;15.33;100.00;99910.28;4802889;29;20085;-73
2023/07/27 07:50:46;;;;;;;6.43;2.38;;;;;;;15.31;100.00;99904.31;4803595;29;20085;-74
2023/07/27 07:53:49;;;;;;;5.28;2.30;;;;;;;15.39;100.00;99899.25;4803792;29;20613;-73
2023/07/27 07:56:53;;;;;;;5.63;2.28;;;;;;;15.26;100.00;99906.50;4804438;29;20586;-75
2023/07/27 07:59:56;;;;;;;6.72;2.58;;;;;;;15.40;100.00;99895.66;4807086;29;20125;-77
2023/07/27 08:02:59;;;;;;;5.32;2.22;;;;;;;15.48;100.00;99895.88;4807166;29;20524;-76
2023/07/27 08:06:07;;;;;;;4.05;2.00;;;;;;;15.49;100.00;99901.97;4807464;29;20054;-77
2023/07/27 08:09:16;;;;;;;4.05;2.60;;;;;;;15.58;100.00;99901.22;4807430;29;20104;-77
2023/07/27 08:12:20;;;;;;;5.78;2.58;;;;;;;15.63;100.00;99888.47;4795619;29;20136;-72
2023/07/27 08:15:23;;;;;;;4.38;2.67;;;;;;;15.69;100.00;99889.78;4807211;29;20053;-74
2023/07/27 08:18:28;;;;;;;9.13;2.67;;;;;;;15.71;100.00;99890.50;4807057;29;20049;-82
2023/07/27 08:25:58;;;;;;;3.63;2.00;;;;;;;15.69;100.00;99876.63;4795676;29;20058;-75
2023/07/27 08:29:06;;;;;;;5.05;2.35;;;;;;;15.68;100.00;99875.78;4806846;29;20148;-75
2023/07/27 08:32:14;;;;;;;5.05;1.92;;;;;;;15.76;100.00;99877.75;4795680;29;20115;-75
2023/07/27 08:35:21;;;;;;;4.82;2.10;;;;;;;15.82;100.00;99871.97;4795726;29;20053;-75
2023/07/27 08:38:27;;;;;;;5.78;1.83;;;;;;;15.83;100.00;99868.41;4795691;29;20077;-75
2023/07/27 08:41:31;;;;;;;3.58;1.70;;;;;;;15.85;100.00;99871.72;4807145;29;20050;-75
2023/07/27 08:44:35;;;;;;;5.55;1.83;;;;;;;15.87;100.00;99868.97;4795621;29;20053;-75
2023/07/27 08:47:39;;;;;;;3.08;1.70;;;;;;;15.90;100.00;99858.16;4806562;29;20053;-75
2023/07/27 08:50:44;;;;;;;4.38;1.55;;;;;;;15.93;100.00;99860.53;4806384;29;20262;-75
2023/07/27 08:53:47;;;;;;;2.63;1.33;;;;;;;15.97;99.79;99848.75;4806275;29;20193;-72
2023/07/27 08:56:50;;;;;;;4.70;1.67;;;;;;;15.99;99.51;99852.94;4806781;29;20112;-76
2023/07/27 08:59:54;;;;;;;5.70;1.60;;;;;;;15.98;99.80;99845.97;4806667;29;20227;-80
2023/07/27 09:03:17;;;;;;;3.67;1.50;;;;;;;16.06;99.41;99850.63;4806871;29;20045;-84
2023/07/27 09:06:49;;;;;;;3.08;1.52;;;;;;;16.02;99.57;99841.31;4804533;29;20053;-79
2023/07/27 09:09:56;;;;;;;2.88;1.20;;;;;;;16.10;96.75;99844.09;4814178;29;20062;-84
2023/07/27 09:13:01;;;;;;;3.10;1.45;;;;;;;16.24;99.02;99853.44;4795058;29;20058;-74
2023/07/27 09:16:08;;;;;;;4.50;1.70;;;;;;;16.24;97.81;99845.53;4794735;29;20425;-74
2023/07/27 09:19:17;;;;;;;4.30;1.30;;;;;;;16.27;97.25;99846.13;4804383;29;20057;-73
2023/07/27 09:22:21;;;;;;;4.57;1.35;;;;;;;16.31;99.27;99830.88;4804912;29;20416;-74
2023/07/27 09:25:24;;;;;;;2.45;1.25;;;;;;;16.26;98.14;99830.41;4805004;29;20108;-76
2023/07/27 09:28:28;;;;;;;3.63;1.35;;;;;;;16.28;100.00;99828.50;4805947;29;20078;-76
2023/07/27 09:31:36;;;;;;;3.17;1.38;;;;;;;16.31;100.00;99824.75;4804002;29;20532;-76
2023/07/27 09:34:39;;;;;;;3.58;1.35;;;;;;;16.37;100.00;99830.34;4806102;29;20140;-79
2023/07/27 09:37:46;;;;;;;3.45;1.48;;;;;;;16.44;100.00;99825.34;4794551;29;20049;-80
2023/07/27 09:40:49;;;;;;;5.68;1.40;;;;;;;16.42;100.00;99824.63;4805843;29;20193;-77
2023/07/27 09:43:55;;;;;;;3.20;1.80;;;;;;;16.45;100.00;99824.38;4805567;29;20149;-78
2023/07/27 09:46:58;;;;;;;4.28;1.60;;;;;;;16.44;100.00;99822.72;4805582;29;20204;-78
2023/07/27 09:50:03;;;;;;;2.65;1.60;;;;;;;16.54;100.00;99815.66;4805504;29;20078;-82
2023/07/27 09:53:09;;;;;;;3.30;1.58;;;;;;;16.58;100.00;99822.31;4805772;29;20053;-82
2023/07/27 09:56:15;;;;;;;2.65;1.50;;;;;;;16.61;100.00;99818.56;4805414;29;20111;-82
2023/07/27 09:59:21;;;;;;;3.50;1.48;;;;;;;16.64;100.00;99818.31;4787420;29;20177;-81
2023/07/27 10:02:24;;;;;;;3.00;1.60;;;;;;;16.70;100.00;99817.75;4787495;29;20054;-82
2023/07/27 10:05:33;;;;;;;2.88;1.50;;;;;;;16.71;100.00;99817.59;4782318;29;20050;-83
2023/07/27 10:08:42;;;;;;;2.83;1.38;;;;;;;16.73;100.00;99812.22;4806079;29;20050;-78
2023/07/27 10:11:59;;;;;;;3.50;1.42;;;;;;;16.72;100.00;99803.47;4805922;29;20062;-80
2023/07/27 10:15:25;;;;;;;4.38;1.38;;;;;;;16.77;100.00;99795.16;4804668;29;20149;-81
2023/07/27 10:18:29;;;;;;;2.85;1.27;;;;;;;16.84;99.53;99795.44;4804973;29;20183;-79
2023/07/27 10:21:34;;;;;;;2.85;1.42;;;;;;;16.91;100.00;99791.25;4804317;29;20069;-77
2023/07/27 10:24:51;;;;;;;4.32;1.50;;;;;;;16.95;100.00;99788.22;4805239;29;20188;-79
2023/07/27 10:27:55;;;;;;;2.72;1.23;;;;;;;16.94;100.00;99796.25;4804266;29;20143;-80
2023/07/27 10:31:14;;;;;;;3.92;1.40;;;;;;;16.95;100.00;99793.50;4805077;29;20053;-79
2023/07/27 10:34:17;;;;;;;3.28;1.63;;;;;;;16.93;100.00;99800.72;4804820;29;20133;-78
2023/07/27 10:37:21;;;;;;;5.13;1.38;;;;;;;17.01;100.00;99801.84;4804990;29;20050;-78
2023/07/27 10:40:29;;;;;;;3.20;1.40;;;;;;;17.04;100.00;99786.56;4805057;29;20420;-78
2023/07/27 10:43:35;;;;;;;5.40;1.80;;;;;;;17.03;100.00;99790.16;4805021;29;20070;-79
2023/07/27 10:46:43;;;;;;;2.92;1.60;;;;;;;17.02;100.00;99793.78;4805364;29;20499;-77
2023/07/27 10:49:56;;;;;;;3.08;1.45;;;;;;;16.99;100.00;99793.22;4805414;29;20118;-77
2023/07/27 10:53:01;;;;;;;5.95;1.67;;;;;;;17.05;100.00;99790.03;4805533;29;20054;-80
2023/07/27 10:56:06;;;;;;;4.15;1.48;;;;;;;17.06;100.00;99781.13;4804604;29;20050;-80
2023/07/27 10:59:54;;;;;;;4.18;1.40;;;;;;;17.07;100.00;99781.00;4821223;29;20572;-78
2023/07/27 11:03:03;;;;;;;;;;;;;;;17.07;100.00;99770.44;4819312;29;20558;-82
2023/07/27 11:06:07;;;;;;;3.40;1.40;;;;;;;17.13;100.00;99774.28;4822661;29;20336;-79
2023/07/27 11:09:16;;;;;;;5.28;1.60;;;;;;;17.15;100.00;99769.72;4821857;29;20522;-76
2023/07/27 11:12:19;;;;;;;4.78;1.30;;;;;;;17.03;100.00;99766.38;4822322;29;20057;-76
2023/07/27 11:15:24;;;;;;;4.72;1.42;;;;;;;17.04;100.00;99764.56;4822467;29;20110;-78
2023/07/27 11:18:29;;;;;;;2.88;1.42;;;;;;;17.18;100.00;99761.50;4822371;29;20488;-76
2023/07/27 11:21:32;;;;;;;3.72;1.45;;;;;;;17.17;100.00;99757.22;4822481;29;20049;-76
2023/07/27 11:24:36;;;;;;;2.58;1.50;;;;;;;17.24;100.00;99758.31;4822669;29;20422;-76
2023/07/27 11:27:39;;;;;;;2.97;1.40;;;;;;;17.29;100.00;99758.69;4822884;29;20057;-76
2023/07/27 11:30:42;;;;;;;11.50;1.48;;;;;;;17.33;100.00;99753.97;4822806;29;20065;-76
2023/07/27 11:33:46;;;;;;;2.45;1.42;;;;;;;17.40;100.00;99745.34;4826055;29;20054;-75
2023/07/27 11:36:51;;;;;;;4.07;1.42;;;;;;;17.39;100.00;99751.59;4826283;29;20044;-78
2023/07/27 11:39:55;;;;;;;4.15;1.38;;;;;;;17.41;100.00;99754.91;4825904;29;20053;-74
2023/07/27 11:43:02;;;;;;;2.88;1.20;;;;;;;17.55;100.00;99751.00;4824452;29;20085;-76
2023/07/27 11:46:05;;;;;;;4.32;1.60;;;;;;;17.61;100.00;99755.72;4825746;29;20049;-74
2023/07/27 11:49:08;;;;;;;5.20;1.30;;;;;;;17.65;100.00;99748.31;4825695;29;20077;-76
2023/07/27 11:52:12;;;;;;;6.22;1.40;;;;;;;17.72;100.00;99754.69;4825977;29;20053;-76
2023/07/27 11:55:15;;;;;;;7.00;1.65;;;;;;;17.58;100.00;99748.06;4825566;29;20053;-73
2023/07/27 11:58:19;;;;;;;3.40;1.17;;;;;;;17.54;100.00;99746.66;4825274;29;20081;-73
2023/07/27 12:01:22;;;;;;;2.72;1.00;;;;;;;17.67;100.00;99749.00;4825493;29;20091;-73
2023/07/27 12:04:26;;;;;;;3.72;1.48;;;;;;;17.69;100.00;99752.34;4825386;29;20077;-74
2023/07/27 12:07:34;;;;;;;4.05;1.50;;;;;;;17.61;100.00;99758.38;4824748;29;20409;-75
2023/07/27 12:10:36;;;;;;;3.38;1.42;;;;;;;17.75;100.00;99756.22;4825625;29;20432;-75
2023/07/27 12:13:43;;;;;;;7.10;1.60;;;;;;;17.78;99.64;99753.31;4825301;29;20111;-75
2023/07/27 12:16:47;;;;;;;2.75;1.45;;;;;;;17.88;97.76;99748.81;4813065;29;20176;-75
2023/07/27 12:19:51;;;;;;;2.58;1.40;;;;;;;17.88;94.95;99762.88;4813664;29;20145;-76
2023/07/27 12:22:54;;;;;;;3.35;1.42;;;;;;;17.83;94.15;99751.06;4823733;29;20049;-75
2023/07/27 12:25:57;;;;;;;4.03;1.42;;;;;;;17.89;94.38;99748.66;4824727;29;20509;-75
2023/07/27 12:29:01;;;;;;;4.00;1.58;;;;;;;17.98;95.21;99738.19;4825003;29;20053;-80
2023/07/27 12:32:05;;;;;;;2.42;1.60;;;;;;;18.06;93.52;99747.06;4825860;29;20073;-79
2023/07/27 12:35:08;;;;;;;2.80;1.50;;;;;;;18.03;93.17;99751.81;4826654;29;20072;-78
2023/07/27 12:38:12;;;;;;;3.17;2.00;;;;;;;18.00;93.33;99750.31;4826235;29;20464;-77
2023/07/27 12:41:15;;;;;;;2.58;1.50;;;;;;;18.06;92.66;99747.06;4823934;29;20531;-76
2023/07/27 12:44:18;;;;;;;2.67;1.38;;;;;;;18.04;92.37;99743.72;4824112;29;20424;-78
2023/07/27 12:47:21;;;;;;;2.95;1.60;;;;;;;18.17;93.64;99746.03;4824503;29;20049;-77
2023/07/27 12:50:25;;;;;;;3.70;1.90;;;;;;;18.17;95.06;99747.84;4823706;29;20115;-78
2023/07/27 12:53:28;;;;;;;3.58;1.90;;;;;;;18.21;92.76;99733.31;4823502;29;20127;-78
2023/07/27 12:56:31;;;;;;;2.80;1.50;;;;;;;18.25;92.44;99740.84;4822524;29;20057;-78
2023/07/27 12:59:35;;;;;;;3.75;1.52;;;;;;;18.22;93.17;99734.97;4824228;29;20132;-79
2023/07/27 13:02:38;;;;;;;2.20;1.42;;;;;;;18.34;93.15;99733.78;4823889;29;20185;-79
2023/07/27 13:05:42;;;;;;;5.68;1.48;;;;;;;18.40;94.22;99737.66;4824342;29;20192;-78
2023/07/27 13:08:45;;;;;;;3.55;1.80;;;;;;;18.33;94.19;99730.31;4824479;29;20385;-74
2023/07/27 13:11:49;;;;;;;2.42;1.70;;;;;;;18.41;94.60;99728.72;4824641;29;20057;-76
2023/07/27 13:14:54;;;;;;;2.10;1.17;;;;;;;18.20;97.10;99735.16;4813482;29;20052;-76
2023/07/27 13:18:03;;;;;;;3.05;1.52;;;;;;;18.29;95.66;99731.63;4823665;29;20434;-74
2023/07/27 13:21:06;;;;;;;4.57;1.48;;;;;;;18.40;96.84;99732.38;4823991;29;20452;-75
2023/07/27 13:24:10;;;;;;;3.17;1.20;;;;;;;18.26;97.90;99733.72;4822986;29;20146;-74
2023/07/27 13:27:13;;;;;;;2.63;1.30;;;;;;;18.11;98.18;99731.56;4823881;29;20049;-75
2023/07/27 13:30:16;;;;;;;3.08;1.48;;;;;;;18.13;98.71;99726.16;4824084;29;20136;-75
2023/07/27 13:33:20;;;;;;;2.75;0.90;;;;;;;18.26;99.43;99726.63;4824015;29;20057;-77
2023/07/27 13:36:23;;;;;;;4.30;1.15;;;;;;;18.22;99.19;99729.69;4823965;29;20064;-79
2023/07/27 13:39:28;;;;;;;3.63;0.98;;;;;;;18.42;99.03;99730.41;4823885;29;20111;-78
2023/07/27 13:42:31;;;;;;;5.20;1.00;;;;;;;18.44;98.17;99741.66;4812686;29;20054;-76
2023/07/27 13:45:37;;;;;;;1.95;0.80;;;;;;;18.24;100.00;99733.03;4812556;29;20092;-78
2023/07/27 13:48:41;;;;;;;2.08;0.90;;;;;;;18.25;100.00;99739.97;4824047;29;20528;-77
2023/07/27 13:55:53;;;;;;;3.92;1.10;;;;;;;18.23;100.00;99740.16;4821330;29;20164;-76
2023/07/27 13:58:56;;;;;;;2.95;0.80;;;;;;;18.18;100.00;99738.91;4807501;29;20112;-78
2023/07/27 14:02:00;;;;;;;3.33;0.93;;;;;;;18.12;100.00;99735.03;4804564;29;20049;-79
2023/07/27 14:05:04;;;;;;;1.40;0.60;;;;;;;17.98;100.00;99733.72;4805580;29;20139;-78
2023/07/27 14:08:09;;;;;;;3.30;0.93;;;;;;;18.00;100.00;99739.72;4805754;29;20054;-77
2023/07/27 14:11:13;;;;;;;1.98;0.70;;;;;;;18.05;100.00;99734.81;4804569;29;20112;-79
2023/07/27 14:14:19;;;;;;;1.20;0.50;;;;;;;18.16;100.00;99735.59;4805444;29;20110;-77
2023/07/27 14:17:24;;;;;;;1.90;0.88;;;;;;;18.06;100.00;99730.34;4804996;29;20055;-79
2023/07/27 14:20:30;;;;;;;3.53;0.80;;;;;;;18.07;100.00;99734.66;4805240;29;20417;-78
2023/07/27 14:23:36;;;;;;;2.15;0.50;;;;;;;18.13;100.00;99726.16;4805006;29;20059;-78
2023/07/27 14:26:41;;;;;;;4.65;1.23;;;;;;;18.21;100.00;99725.38;4804787;29;20165;-78
2023/07/27 14:29:45;;;;;;;2.00;0.70;;;;;;;18.12;100.00;99724.47;4804946;29;20130;-85
2023/07/27 14:32:50;;;;;;;2.38;0.80;;;;;;;18.22;100.00;99722.63;4814386;29;20147;-78